Time;durP1;ratioP1;P1;durP2;ratioP2;P2;SDS_P1;SDS_P2;PMS_P1;PMS_P2;Temp;Humidity;BMP_temperature;BMP_pressure;BME280_temperature;BME280_humidity;BME280_pressure;Samples;Min_cycle;Max_cycle;Signal;HPM_P1;HPM_P2
2024/01/30 00:03:45;;;;;;;16.13;8.88;;;;;;;;;;10443708;28;20057;-47
2024/01/30 00:08:48;;;;;;;16.17;7.43;;;;;;;;;;10436318;28;20037;-48
2024/01/30 00:13:49;;;;;;;14.00;7.43;;;;;;;;;;10433383;28;20028;-48
2024/01/30 00:18:53;;;;;;;12.38;6.97;;;;;;;;;;10448572;28;20059;-46
2024/01/30 00:23:53;;;;;;;11.63;7.45;;;;;;;;;;10413370;28;20071;-45
2024/01/30 00:28:54;;;;;;;10.88;6.85;;;;;;;;;;10427438;28;20420;-45
2024/01/30 00:33:55;;;;;;;10.13;7.05;;;;;;;;;;10439391;28;20063;-45
2024/01/30 00:38:55;;;;;;;13.10;7.28;;;;;;;;;;10448546;28;20108;-48
2024/01/30 00:43:56;;;;;;;16.63;7.00;;;;;;;;;;10434430;28;20032;-45
2024/01/30 00:48:56;;;;;;;15.75;7.78;;;;;;;;;;10435081;28;20032;-48
2024/01/30 00:53:57;;;;;;;10.80;7.25;;;;;;;;;;10435465;28;20064;-49
2024/01/30 00:58:57;;;;;;;12.48;7.32;;;;;;;;;;10447322;28;20021;-46
2024/01/30 01:03:58;;;;;;;14.63;7.07;;;;;;;;;;10435234;28;20025;-50
2024/01/30 01:08:59;;;;;;;9.60;6.57;;;;;;;;;;10421332;28;20038;-46
2024/01/30 01:13:59;;;;;;;12.88;6.95;;;;;;;;;;10434074;28;20048;-51
2024/01/30 01:19:00;;;;;;;12.25;7.13;;;;;;;;;;10433908;28;20037;-60
2024/01/30 01:24:00;;;;;;;10.80;7.43;;;;;;;;;;10416660;28;20051;-48
2024/01/30 01:29:01;;;;;;;10.50;6.80;;;;;;;;;;10442189;28;20040;-45
2024/01/30 01:34:01;;;;;;;11.48;6.90;;;;;;;;;;10432937;28;20401;-53
2024/01/30 01:39:03;;;;;;;11.55;7.00;;;;;;;;;;10421486;28;20484;-49
2024/01/30 01:44:04;;;;;;;9.65;6.60;;;;;;;;;;10422009;28;20084;-45
2024/01/30 01:49:08;;;;;;;12.20;7.18;;;;;;;;;;10444298;28;20104;-47
2024/01/30 01:54:09;;;;;;;10.45;6.65;;;;;;;;;;10443686;28;20033;-47
2024/01/30 01:59:09;;;;;;;9.48;6.75;;;;;;;;;;10444016;28;20021;-49
2024/01/30 02:04:10;;;;;;;9.57;6.43;;;;;;;;;;10397209;28;20044;-48
2024/01/30 02:09:11;;;;;;;10.20;6.30;;;;;;;;;;10406373;28;20021;-48
2024/01/30 02:14:11;;;;;;;10.23;6.88;;;;;;;;;;10406867;28;20033;-46
2024/01/30 02:19:12;;;;;;;10.68;7.00;;;;;;;;;;10404857;28;20029;-44
2024/01/30 02:24:12;;;;;;;10.90;7.40;;;;;;;;;;10393752;28;20029;-48
2024/01/30 02:29:13;;;;;;;8.43;6.18;;;;;;;;;;10416610;28;20473;-61
2024/01/30 02:34:14;;;;;;;10.30;6.72;;;;;;;;;;10418893;28;20685;-47
2024/01/30 02:39:15;;;;;;;12.48;7.15;;;;;;;;;;10405557;28;20128;-47
2024/01/30 02:44:15;;;;;;;10.35;6.60;;;;;;;;;;10405515;28;20111;-47
2024/01/30 02:49:16;;;;;;;12.68;7.00;;;;;;;;;;10405767;28;20025;-47
2024/01/30 02:54:16;;;;;;;8.85;6.85;;;;;;;;;;10407063;28;20133;-47
2024/01/30 02:59:17;;;;;;;9.13;6.32;;;;;;;;;;10405163;28;20029;-45
2024/01/30 03:04:18;;;;;;;7.97;6.13;;;;;;;;;;10405048;28;20060;-46
2024/01/30 03:09:18;;;;;;;9.48;7.07;;;;;;;;;;10403893;28;20044;-45
2024/01/30 03:14:19;;;;;;;11.75;6.60;;;;;;;;;;10405832;28;20428;-45
2024/01/30 03:19:19;;;;;;;9.07;6.22;;;;;;;;;;10404464;28;20025;-46
2024/01/30 03:24:20;;;;;;;10.07;6.35;;;;;;;;;;10396069;28;20048;-44
2024/01/30 03:29:21;;;;;;;8.77;6.40;;;;;;;;;;10404341;28;20477;-45
2024/01/30 03:34:21;;;;;;;10.90;6.70;;;;;;;;;;10412910;28;20025;-47
2024/01/30 03:39:23;;;;;;;9.93;6.90;;;;;;;;;;10413070;28;20053;-48
2024/01/30 03:44:25;;;;;;;9.60;6.72;;;;;;;;;;10410980;28;20056;-48
2024/01/30 03:49:25;;;;;;;8.75;5.95;;;;;;;;;;10393801;28;20386;-48
2024/01/30 03:54:26;;;;;;;10.63;6.45;;;;;;;;;;10401448;28;20202;-44
2024/01/30 03:59:26;;;;;;;8.15;6.10;;;;;;;;;;10410815;28;20072;-46
2024/01/30 04:04:27;;;;;;;8.40;6.25;;;;;;;;;;10411423;28;20052;-48
2024/01/30 04:09:28;;;;;;;9.20;6.45;;;;;;;;;;10411106;28;20033;-46
2024/01/30 04:14:29;;;;;;;8.00;5.68;;;;;;;;;;10411515;28;20033;-48
2024/01/30 04:19:29;;;;;;;8.35;5.88;;;;;;;;;;10410831;28;20381;-45
2024/01/30 04:24:30;;;;;;;8.60;6.47;;;;;;;;;;10406233;28;20476;-46
2024/01/30 04:29:32;;;;;;;7.88;6.35;;;;;;;;;;10411039;28;20535;-47
2024/01/30 04:34:32;;;;;;;11.75;7.25;;;;;;;;;;10410437;28;20045;-46
2024/01/30 04:39:33;;;;;;;9.15;6.80;;;;;;;;;;10410928;28;20101;-46
2024/01/30 04:44:34;;;;;;;8.20;6.60;;;;;;;;;;10409487;28;20504;-47
2024/01/30 04:49:35;;;;;;;8.93;6.05;;;;;;;;;;10410166;28;20029;-48
2024/01/30 04:54:36;;;;;;;9.25;6.53;;;;;;;;;;10409953;28;20033;-52
2024/01/30 04:59:36;;;;;;;9.13;6.53;;;;;;;;;;10407852;28;20384;-45
2024/01/30 05:04:37;;;;;;;11.23;6.65;;;;;;;;;;10407322;28;20030;-47
2024/01/30 05:09:37;;;;;;;7.20;6.03;;;;;;;;;;10408892;28;20033;-47
2024/01/30 05:14:38;;;;;;;9.43;6.18;;;;;;;;;;10413120;28;20055;-46
2024/01/30 05:19:38;;;;;;;8.18;6.32;;;;;;;;;;10419455;28;20033;-49
2024/01/30 05:24:39;;;;;;;10.07;6.30;;;;;;;;;;10409402;28;20092;-48
2024/01/30 05:29:41;;;;;;;9.68;6.57;;;;;;;;;;10406658;28;20037;-46
2024/01/30 05:34:41;;;;;;;11.48;7.05;;;;;;;;;;10408444;28;20388;-54
2024/01/30 05:39:42;;;;;;;8.32;6.32;;;;;;;;;;10407971;28;20045;-45
2024/01/30 05:44:42;;;;;;;9.15;6.40;;;;;;;;;;10407494;28;20032;-47
2024/01/30 05:49:43;;;;;;;8.77;6.57;;;;;;;;;;10432951;28;20480;-46
2024/01/30 05:54:44;;;;;;;8.18;6.28;;;;;;;;;;10440256;28;20043;-47
2024/01/30 05:59:45;;;;;;;7.30;6.18;;;;;;;;;;10442005;28;20392;-48
2024/01/30 06:04:45;;;;;;;7.95;6.28;;;;;;;;;;10438681;28;20634;-46
2024/01/30 06:09:46;;;;;;;8.98;6.45;;;;;;;;;;10410160;28;20026;-49
2024/01/30 06:14:47;;;;;;;10.40;6.25;;;;;;;;;;10406669;28;20021;-48
2024/01/30 06:19:47;;;;;;;8.27;5.97;;;;;;;;;;10405571;28;20029;-44
2024/01/30 06:24:48;;;;;;;8.23;6.35;;;;;;;;;;10426143;28;20099;-54
2024/01/30 06:29:49;;;;;;;8.70;6.65;;;;;;;;;;10423521;28;20041;-45
2024/01/30 06:34:49;;;;;;;11.00;6.40;;;;;;;;;;10425296;28;20460;-45
2024/01/30 06:39:50;;;;;;;9.00;6.45;;;;;;;;;;10419841;28;20106;-44
2024/01/30 06:44:51;;;;;;;9.27;6.38;;;;;;;;;;10422839;28;20029;-45
2024/01/30 06:49:51;;;;;;;7.32;6.07;;;;;;;;;;10407139;28;20036;-49
2024/01/30 06:54:52;;;;;;;20.30;9.10;;;;;;;;;;10401078;28;20045;-47
2024/01/30 06:59:52;;;;;;;21.15;11.90;;;;;;;;;;10409058;28;20036;-59
2024/01/30 07:04:53;;;;;;;22.38;14.20;;;;;;;;;;10414784;28;20569;-51
2024/01/30 07:09:56;;;;;;;22.73;13.70;;;;;;;;;;10412496;28;20037;-48
2024/01/30 07:14:59;;;;;;;22.00;14.27;;;;;;;;;;10403695;28;20398;-55
2024/01/30 07:19:59;;;;;;;31.10;15.80;;;;;;;;;;10400475;28;20377;-59
2024/01/30 07:25:00;;;;;;;25.75;14.38;;;;;;;;;;10398604;28;20040;-67
2024/01/30 07:30:01;;;;;;;25.80;14.70;;;;;;;;;;10405138;28;20033;-52
2024/01/30 07:35:02;;;;;;;24.25;14.88;;;;;;;;;;10405148;28;20033;-50
2024/01/30 07:40:03;;;;;;;24.70;14.85;;;;;;;;;;10404079;28;20132;-51
2024/01/30 07:45:04;;;;;;;21.73;14.88;;;;;;;;;;10405792;28;20037;-64
2024/01/30 07:50:06;;;;;;;24.52;14.85;;;;;;;;;;10404038;28;20053;-62
2024/01/30 07:55:07;;;;;;;23.63;15.20;;;;;;;;;;10401868;28;20034;-64
2024/01/30 08:00:09;;;;;;;19.88;13.93;;;;;;;;;;10405194;28;20054;-49
2024/01/30 08:05:11;;;;;;;26.63;15.25;;;;;;;;;;10403692;28;20430;-58
2024/01/30 08:10:13;;;;;;;20.42;14.45;;;;;;;;;;10403640;28;20056;-58
2024/01/30 08:15:13;;;;;;;22.02;14.88;;;;;;;;;;10405427;28;20538;-59
2024/01/30 08:20:14;;;;;;;25.00;14.95;;;;;;;;;;10410140;28;20076;-47
2024/01/30 08:25:15;;;;;;;23.92;14.75;;;;;;;;;;10417314;28;20032;-59
2024/01/30 08:30:15;;;;;;;19.10;14.30;;;;;;;;;;10419105;28;20032;-62
2024/01/30 08:35:16;;;;;;;25.17;14.55;;;;;;;;;;10410854;28;20029;-59
2024/01/30 08:40:17;;;;;;;20.65;14.02;;;;;;;;;;10411240;28;20041;-53
2024/01/30 08:45:18;;;;;;;24.55;14.50;;;;;;;;;;10411612;28;20279;-44
2024/01/30 08:50:18;;;;;;;21.88;14.90;;;;;;;;;;10411156;28;20025;-45
2024/01/30 08:55:19;;;;;;;24.67;14.98;;;;;;;;;;10406940;28;20034;-47
2024/01/30 09:00:20;;;;;;;22.10;14.55;;;;;;;;;;10410330;28;20079;-43
2024/01/30 09:05:20;;;;;;;23.85;15.38;;;;;;;;;;10409961;28;20029;-59
2024/01/30 09:10:21;;;;;;;20.58;14.32;;;;;;;;;;10409854;28;20374;-44
2024/01/30 09:15:22;;;;;;;19.48;14.48;;;;;;;;;;10409988;28;20037;-46
2024/01/30 09:20:22;;;;;;;22.17;14.70;;;;;;;;;;10409739;28;20029;-55
2024/01/30 09:25:23;;;;;;;19.73;14.20;;;;;;;;;;10407799;28;20052;-46
2024/01/30 09:30:24;;;;;;;22.40;15.20;;;;;;;;;;10407357;28;20076;-53
2024/01/30 09:35:24;;;;;;;24.55;13.88;;;;;;;;;;10408978;28;20037;-64
2024/01/30 09:40:25;;;;;;;18.77;14.02;;;;;;;;;;10408721;28;20053;-46
2024/01/30 09:45:26;;;;;;;20.63;14.43;;;;;;;;;;10408199;28;20479;-50
2024/01/30 09:50:27;;;;;;;20.20;14.35;;;;;;;;;;10408633;28;20033;-46
2024/01/30 09:55:28;;;;;;;19.15;13.35;;;;;;;;;;10405001;28;20033;-43
2024/01/30 10:00:28;;;;;;;20.23;13.70;;;;;;;;;;10407966;28;20036;-50
2024/01/30 10:05:34;;;;;;;21.10;13.32;;;;;;;;;;10407464;28;20539;-50
2024/01/30 10:10:35;;;;;;;17.08;12.88;;;;;;;;;;10407622;28;20087;-44
2024/01/30 10:15:38;;;;;;;16.48;12.38;;;;;;;;;;10407470;28;20025;-45
2024/01/30 10:20:39;;;;;;;23.83;13.70;;;;;;;;;;10407958;28;20033;-45
2024/01/30 10:25:40;;;;;;;19.35;13.27;;;;;;;;;;10407253;28;20376;-47
2024/01/30 10:30:40;;;;;;;17.58;12.85;;;;;;;;;;10407543;28;20049;-48
2024/01/30 10:35:41;;;;;;;17.60;13.00;;;;;;;;;;10418823;28;20520;-44
2024/01/30 10:40:43;;;;;;;20.88;12.82;;;;;;;;;;10404531;28;20540;-46
2024/01/30 10:45:49;;;;;;;15.68;12.05;;;;;;;;;;10406830;28;20014;-44
2024/01/30 10:50:51;;;;;;;16.98;12.27;;;;;;;;;;10404211;28;20033;-48
2024/01/30 10:55:54;;;;;;;22.17;12.80;;;;;;;;;;10403256;28;20037;-47
2024/01/30 11:00:55;;;;;;;20.67;12.45;;;;;;;;;;10406202;28;20109;-50
2024/01/30 11:06:00;;;;;;;16.95;12.60;;;;;;;;;;10404795;28;20376;-46
2024/01/30 11:11:00;;;;;;;18.10;11.65;;;;;;;;;;10404085;28;20038;-47
2024/01/30 11:16:05;;;;;;;16.25;12.10;;;;;;;;;;10404635;28;20025;-47
2024/01/30 11:21:06;;;;;;;19.17;12.63;;;;;;;;;;10405780;28;20120;-48
2024/01/30 11:26:06;;;;;;;16.08;12.10;;;;;;;;;;10405614;28;20103;-44
2024/01/30 11:31:07;;;;;;;15.10;11.13;;;;;;;;;;10406809;28;20127;-45
2024/01/30 11:36:08;;;;;;;14.55;11.60;;;;;;;;;;10424030;23;20474;-57
2024/01/30 11:41:09;;;;;;;17.25;11.70;;;;;;;;;;10445790;28;20248;-55
2024/01/30 11:46:10;;;;;;;15.75;11.40;;;;;;;;;;10438527;28;20264;-55
2024/01/30 11:51:13;;;;;;;16.38;10.65;;;;;;;;;;10430373;28;20025;-51
2024/01/30 11:56:14;;;;;;;13.93;10.93;;;;;;;;;;10443818;28;20020;-54
2024/01/30 12:01:17;;;;;;;15.23;10.77;;;;;;;;;;10449432;28;20036;-51
2024/01/30 12:06:18;;;;;;;15.38;10.70;;;;;;;;;;10437044;28;20491;-59
2024/01/30 12:11:18;;;;;;;14.85;10.80;;;;;;;;;;10444165;28;20027;-55
2024/01/30 12:16:20;;;;;;;19.75;11.10;;;;;;;;;;10421226;28;20393;-55
2024/01/30 12:21:21;;;;;;;14.63;10.02;;;;;;;;;;10424732;28;20045;-55
2024/01/30 12:26:21;;;;;;;13.30;10.60;;;;;;;;;;10448517;28;20033;-54
2024/01/30 12:31:28;;;;;;;15.80;10.82;;;;;;;;;;10435472;28;20094;-54
2024/01/30 12:36:32;;;;;;;13.98;11.00;;;;;;;;;;10446853;28;20301;-55
2024/01/30 12:41:33;;;;;;;14.88;9.68;;;;;;;;;;10426533;28;20060;-58
2024/01/30 12:46:36;;;;;;;14.27;9.93;;;;;;;;;;10434209;28;20067;-59
2024/01/30 12:51:37;;;;;;;15.45;9.75;;;;;;;;;;10434941;28;20033;-56
2024/01/30 12:56:38;;;;;;;15.00;10.25;;;;;;;;;;10419998;28;20033;-56
2024/01/30 13:01:38;;;;;;;13.60;10.40;;;;;;;;;;10434909;28;20523;-56
2024/01/30 13:06:39;;;;;;;12.45;9.35;;;;;;;;;;10431368;28;20033;-57
2024/01/30 13:11:39;;;;;;;14.40;9.80;;;;;;;;;;10442704;28;20071;-57
2024/01/30 13:16:40;;;;;;;12.65;9.57;;;;;;;;;;10442430;28;20481;-57
2024/01/30 13:21:41;;;;;;;11.00;9.65;;;;;;;;;;10437952;28;20522;-58
2024/01/30 13:26:42;;;;;;;12.48;9.65;;;;;;;;;;10428822;28;20026;-57
2024/01/30 13:31:44;;;;;;;13.50;9.50;;;;;;;;;;10437010;28;20025;-57
2024/01/30 13:36:44;;;;;;;14.32;10.90;;;;;;;;;;10441094;28;20046;-58
2024/01/30 13:41:45;;;;;;;11.52;8.88;;;;;;;;;;10420836;28;20225;-58
2024/01/30 13:46:46;;;;;;;10.45;8.52;;;;;;;;;;10421501;28;20029;-57
2024/01/30 13:51:46;;;;;;;11.85;8.85;;;;;;;;;;10420273;28;20436;-61
2024/01/30 13:56:47;;;;;;;11.73;8.85;;;;;;;;;;10404738;28;20401;-55
2024/01/30 14:01:48;;;;;;;13.65;9.55;;;;;;;;;;10405097;28;20065;-57
2024/01/30 14:06:48;;;;;;;11.10;8.63;;;;;;;;;;10423047;28;20237;-55
2024/01/30 14:11:49;;;;;;;11.48;8.48;;;;;;;;;;10427589;28;20132;-61
2024/01/30 14:16:50;;;;;;;12.80;9.05;;;;;;;;;;10430761;28;20032;-55
2024/01/30 14:21:51;;;;;;;13.45;9.10;;;;;;;;;;10425199;28;20029;-55
2024/01/30 14:26:53;;;;;;;11.02;8.45;;;;;;;;;;10437385;28;20025;-56
2024/01/30 14:31:54;;;;;;;11.55;8.40;;;;;;;;;;10425590;28;20108;-64
2024/01/30 14:36:55;;;;;;;12.52;8.18;;;;;;;;;;10432102;28;20052;-55
2024/01/30 14:41:56;;;;;;;12.93;9.25;;;;;;;;;;10435025;28;20025;-65
2024/01/30 14:46:56;;;;;;;13.25;8.07;;;;;;;;;;10440619;28;20101;-55
2024/01/30 14:51:58;;;;;;;11.60;8.30;;;;;;;;;;10433406;28;20037;-55
2024/01/30 14:56:59;;;;;;;10.88;8.25;;;;;;;;;;10425222;28;20033;-58
2024/01/30 15:02:00;;;;;;;11.88;8.07;;;;;;;;;;10418076;28;20030;-56
2024/01/30 15:07:01;;;;;;;9.77;8.00;;;;;;;;;;10431208;28;20024;-55
2024/01/30 15:12:01;;;;;;;11.68;7.95;;;;;;;;;;10431920;28;20037;-57
2024/01/30 15:17:02;;;;;;;10.50;8.48;;;;;;;;;;10417587;28;20473;-55
2024/01/30 15:22:03;;;;;;;10.40;7.90;;;;;;;;;;10436229;28;20120;-55
2024/01/30 15:27:04;;;;;;;12.07;8.02;;;;;;;;;;10431469;28;20106;-57
2024/01/30 15:32:05;;;;;;;11.80;7.47;;;;;;;;;;10450526;28;20037;-55
2024/01/30 15:37:06;;;;;;;9.98;7.72;;;;;;;;;;10449828;28;20044;-57
2024/01/30 15:42:07;;;;;;;10.10;7.88;;;;;;;;;;10432911;28;20439;-56
2024/01/30 15:47:07;;;;;;;11.35;8.20;;;;;;;;;;10424463;28;20041;-57
2024/01/30 15:52:14;;;;;;;10.57;7.43;;;;;;;;;;10415797;28;20029;-54
2024/01/30 15:57:14;;;;;;;9.05;7.82;;;;;;;;;;10413977;28;20413;-57
2024/01/30 16:02:15;;;;;;;11.13;7.60;;;;;;;;;;10414748;28;20021;-56
2024/01/30 16:07:15;;;;;;;13.32;7.63;;;;;;;;;;10415155;28;20247;-57
2024/01/30 16:12:16;;;;;;;9.43;7.13;;;;;;;;;;10415169;28;20037;-56
2024/01/30 16:17:16;;;;;;;11.85;7.75;;;;;;;;;;10411152;28;20036;-56
2024/01/30 16:22:17;;;;;;;9.32;6.88;;;;;;;;;;10410763;28;20025;-54
2024/01/30 16:27:18;;;;;;;9.23;7.45;;;;;;;;;;10422911;28;20033;-56
2024/01/30 16:32:19;;;;;;;10.90;7.28;;;;;;;;;;10416299;28;20053;-56
2024/01/30 16:37:20;;;;;;;9.43;7.20;;;;;;;;;;10426016;28;20045;-57
2024/01/30 16:42:20;;;;;;;7.82;6.53;;;;;;;;;;10422071;28;20025;-57
2024/01/30 16:47:21;;;;;;;9.40;6.70;;;;;;;;;;10410902;28;20048;-61
2024/01/30 16:52:22;;;;;;;13.15;7.30;;;;;;;;;;10412182;28;20045;-59
2024/01/30 16:57:22;;;;;;;8.43;6.38;;;;;;;;;;10408036;28;20033;-59
2024/01/30 17:02:23;;;;;;;8.35;6.55;;;;;;;;;;10409241;28;20393;-56
2024/01/30 17:07:24;;;;;;;10.80;6.78;;;;;;;;;;10409340;28;20025;-55
2024/01/30 17:12:24;;;;;;;10.15;6.72;;;;;;;;;;10423327;28;20059;-57
2024/01/30 17:17:25;;;;;;;8.02;6.28;;;;;;;;;;10445441;28;20464;-58
2024/01/30 17:22:25;;;;;;;9.02;6.47;;;;;;;;;;10424620;28;20036;-56
2024/01/30 17:27:26;;;;;;;10.00;6.90;;;;;;;;;;10398814;28;20084;-56
2024/01/30 17:32:26;;;;;;;7.78;6.15;;;;;;;;;;10405842;28;20032;-56
2024/01/30 17:37:27;;;;;;;7.60;6.03;;;;;;;;;;10411943;28;20399;-57
2024/01/30 17:42:28;;;;;;;17.88;6.97;;;;;;;;;;10419055;28;20041;-58
2024/01/30 17:47:28;;;;;;;9.18;6.57;;;;;;;;;;10439911;28;20056;-58
2024/01/30 17:52:29;;;;;;;9.80;6.28;;;;;;;;;;10445989;28;20029;-57
2024/01/30 17:57:29;;;;;;;13.07;6.85;;;;;;;;;;10418900;28;20029;-58
2024/01/30 18:02:30;;;;;;;13.95;6.68;;;;;;;;;;10440535;28;20029;-56
2024/01/30 18:07:30;;;;;;;8.65;6.25;;;;;;;;;;10444484;28;20065;-58
2024/01/30 18:12:31;;;;;;;8.48;6.30;;;;;;;;;;10410169;28;20021;-55
2024/01/30 18:17:31;;;;;;;10.13;6.50;;;;;;;;;;10410661;28;20030;-58
2024/01/30 18:22:32;;;;;;;10.07;6.15;;;;;;;;;;10415928;28;20052;-59
2024/01/30 18:27:33;;;;;;;7.10;6.03;;;;;;;;;;10406958;28;20030;-58
2024/01/30 18:32:33;;;;;;;7.40;6.07;;;;;;;;;;10409151;28;20052;-58
2024/01/30 18:37:35;;;;;;;11.00;6.22;;;;;;;;;;10406395;28;20046;-58
2024/01/30 18:42:36;;;;;;;7.30;5.95;;;;;;;;;;10408035;28;20060;-57
2024/01/30 18:47:38;;;;;;;8.52;5.95;;;;;;;;;;10407219;28;20014;-57
2024/01/30 18:52:38;;;;;;;7.38;5.50;;;;;;;;;;10405365;28;20025;-58
2024/01/30 18:57:39;;;;;;;7.93;5.50;;;;;;;;;;10410763;28;20082;-58
2024/01/30 19:02:39;;;;;;;13.38;5.90;;;;;;;;;;10410902;28;20056;-58
2024/01/30 19:07:40;;;;;;;10.35;6.22;;;;;;;;;;10405701;28;20364;-61
2024/01/30 19:12:42;;;;;;;6.97;5.50;;;;;;;;;;10426586;28;20357;-58
2024/01/30 19:17:43;;;;;;;8.32;5.30;;;;;;;;;;10415120;28;20029;-58
2024/01/30 19:22:43;;;;;;;7.28;5.70;;;;;;;;;;10405489;28;20029;-58
2024/01/30 19:27:44;;;;;;;8.13;5.90;;;;;;;;;;10404127;28;20365;-58
2024/01/30 19:32:45;;;;;;;8.35;5.78;;;;;;;;;;10403638;28;20408;-58
2024/01/30 19:37:45;;;;;;;8.10;6.15;;;;;;;;;;10405390;28;20049;-58
2024/01/30 19:42:46;;;;;;;9.55;6.45;;;;;;;;;;10405293;28;20021;-58
2024/01/30 19:47:46;;;;;;;11.60;6.78;;;;;;;;;;10411207;28;20381;-58
2024/01/30 19:52:48;;;;;;;23.85;7.25;;;;;;;;;;10405014;28;20025;-58
2024/01/30 19:57:49;;;;;;;13.20;6.78;;;;;;;;;;10419239;28;20544;-58
2024/01/30 20:02:49;;;;;;;22.17;7.47;;;;;;;;;;10436688;28;20029;-58
2024/01/30 20:07:50;;;;;;;12.73;6.95;;;;;;;;;;10422452;28;20025;-58
2024/01/30 20:12:50;;;;;;;11.65;7.07;;;;;;;;;;10424895;28;20040;-59
2024/01/30 20:17:51;;;;;;;10.13;6.60;;;;;;;;;;10438463;28;20033;-58
2024/01/30 20:22:52;;;;;;;8.23;6.53;;;;;;;;;;10437172;28;20050;-58
2024/01/30 20:28:12;;;;;;;9.65;6.57;;;;;;;;;;10436455;28;20029;-58
2024/01/30 20:33:15;;;;;;;13.00;6.10;;;;;;;;;;10385978;28;20083;-58
2024/01/30 20:38:16;;;;;;;9.18;5.97;;;;;;;;;;10382479;28;20078;-58
2024/01/30 20:43:16;;;;;;;15.60;6.75;;;;;;;;;;10381771;28;20037;-58
2024/01/30 20:48:17;;;;;;;13.50;6.53;;;;;;;;;;10390038;28;20038;-58
2024/01/30 20:53:18;;;;;;;11.52;6.78;;;;;;;;;;10399605;28;20083;-58
2024/01/30 20:58:18;;;;;;;9.77;6.13;;;;;;;;;;10356335;28;20378;-58
2024/01/30 21:03:21;;;;;;;7.20;5.85;;;;;;;;;;10374716;28;20605;-58
2024/01/30 21:08:22;;;;;;;11.27;6.13;;;;;;;;;;10392224;28;20030;-58
2024/01/30 21:13:22;;;;;;;8.25;6.07;;;;;;;;;;10438640;28;20029;-58
2024/01/30 21:18:23;;;;;;;13.05;6.25;;;;;;;;;;10429206;28;20032;-58
2024/01/30 21:23:23;;;;;;;7.22;5.75;;;;;;;;;;10434527;28;20025;-58
2024/01/30 21:28:24;;;;;;;7.30;5.57;;;;;;;;;;10438420;28;20100;-56
2024/01/30 21:33:25;;;;;;;13.40;6.35;;;;;;;;;;10426745;28;20183;-57
2024/01/30 21:38:27;;;;;;;9.98;6.75;;;;;;;;;;10434789;28;20049;-57
2024/01/30 21:43:27;;;;;;;12.30;6.63;;;;;;;;;;10443501;28;20503;-57
2024/01/30 21:48:28;;;;;;;10.38;6.43;;;;;;;;;;10445093;28;20042;-57
2024/01/30 21:53:28;;;;;;;6.55;5.68;;;;;;;;;;10435562;28;20045;-57
2024/01/30 21:58:29;;;;;;;7.60;5.82;;;;;;;;;;10432030;28;20024;-58
2024/01/30 22:03:29;;;;;;;11.15;6.35;;;;;;;;;;10419694;28;20040;-57
2024/01/30 22:08:30;;;;;;;13.00;6.50;;;;;;;;;;10420668;28;20032;-57
2024/01/30 22:13:31;;;;;;;8.25;6.22;;;;;;;;;;10377325;28;20370;-57
2024/01/30 22:18:31;;;;;;;8.07;6.28;;;;;;;;;;10408422;28;20524;-58
2024/01/30 22:23:32;;;;;;;10.55;7.65;;;;;;;;;;10412995;28;20098;-58
2024/01/30 22:28:32;;;;;;;13.98;7.45;;;;;;;;;;10414435;28;20416;-58
2024/01/30 22:33:33;;;;;;;16.35;8.27;;;;;;;;;;10423040;28;20388;-58
2024/01/30 22:38:33;;;;;;;14.10;9.25;;;;;;;;;;10403835;28;20385;-58
2024/01/30 22:43:34;;;;;;;20.70;9.85;;;;;;;;;;10412567;28;20100;-59
2024/01/30 22:48:35;;;;;;;15.07;10.15;;;;;;;;;;10417005;28;20174;-59
2024/01/30 22:53:35;;;;;;;16.65;10.73;;;;;;;;;;10407249;28;20369;-59
2024/01/30 22:58:36;;;;;;;15.52;11.60;;;;;;;;;;10407823;28;20435;-59
2024/01/30 23:03:36;;;;;;;20.33;12.10;;;;;;;;;;10422936;28;20034;-60
2024/01/30 23:08:37;;;;;;;18.20;12.13;;;;;;;;;;10402245;28;20141;-59
2024/01/30 23:13:40;;;;;;;15.63;11.38;;;;;;;;;;10412434;28;20026;-60
2024/01/30 23:18:40;;;;;;;20.05;12.38;;;;;;;;;;10410917;28;20033;-63
2024/01/30 23:23:41;;;;;;;18.92;12.00;;;;;;;;;;10406175;28;20477;-61
2024/01/30 23:28:41;;;;;;;17.52;12.70;;;;;;;;;;10434402;28;20420;-58
2024/01/30 23:33:42;;;;;;;17.80;12.00;;;;;;;;;;10442851;28;20060;-59
2024/01/30 23:38:43;;;;;;;20.13;13.32;;;;;;;;;;10433182;28;20118;-59
2024/01/30 23:43:43;;;;;;;19.60;13.30;;;;;;;;;;10416797;28;20025;-58
2024/01/30 23:48:44;;;;;;;18.98;12.90;;;;;;;;;;10409951;28;20083;-54
2024/01/30 23:53:44;;;;;;;18.55;12.65;;;;;;;;;;10450226;28;20025;-55
2024/01/30 23:58:45;;;;;;;18.67;12.95;;;;;;;;;;10422536;28;20037;-56
